M I D A S
Marine Information and Data Acquisition System
Tripno 1847 of the Zeeleeuw from 2010-03-23 08:42:18 to 2010-03-23 15:07:02
Back to CruiseResearch ActivitiesStationsMapUnderway DataData graphs

EquipmentUnitsComment
TimeDGPSUTC
LatitudeDGPSDM.mWGS84
LongitudeDGPSDM.mWGS84
HeadingGyrodeg 
SOGDGPSknotsSpeed over ground
COGDGPSdegCourse over ground
DepthEcho soundermeters200 kHz
Missing or incorrect values are displayed as -999
Navigation data collected by the RV Zeeleeuw from 2010-03-23 08:38:44 to 2010-03-23 15:08:08
                                                                                    Next 1000 lines
Time Latitude Longitude Heading SOG COG Depth
2010-03-23 08:38:54 51°13.661 2°55.957 110.9 0.6 294 6.7
2010-03-23 08:38:59 51°13.662 2°55.955 110.5 0.8 295 6.7
2010-03-23 08:39:04 51°13.663 2°55.953 110.2 1.1 295 6.7
2010-03-23 08:39:09 51°13.663 2°55.95 109.8 1.3 293 6.7
2010-03-23 08:39:14 51°13.664 2°55.947 109.5 1.5 293 6.8
2010-03-23 08:39:19 51°13.665 2°55.943 109.2 1.8 294 -999
2010-03-23 08:39:25 51°13.667 2°55.938 109 2.1 293 -999
2010-03-23 08:39:30 51°13.668 2°55.933 109 2.3 292 4.7
2010-03-23 08:39:36 51°13.669 2°55.927 108.5 2.5 291 -999
2010-03-23 08:39:41 51°13.671 2°55.921 108.2 2.7 290 -999
2010-03-23 08:39:47 51°13.672 2°55.914 107.6 3 288 -999
2010-03-23 08:39:53 51°13.674 2°55.905 107.3 3.1 288 -999
2010-03-23 08:39:57 51°13.675 2°55.9 106.8 3.2 287 -999
2010-03-23 08:40:02 51°13.676 2°55.893 106.7 3.3 287 -999
2010-03-23 08:40:07 51°13.677 2°55.886 106.5 3.5 286 -999
2010-03-23 08:40:12 51°13.679 2°55.878 106.2 3.6 287 -999
2010-03-23 08:40:17 51°13.68 2°55.87 106.1 3.7 286 -999
2010-03-23 08:40:22 51°13.682 2°55.862 106.1 3.7 287 -999
2010-03-23 08:40:28 51°13.683 2°55.853 106 3.7 286 -999
2010-03-23 08:40:32 51°13.684 2°55.846 105.8 3.8 286 -999
2010-03-23 08:40:38 51°13.686 2°55.836 105.4 3.9 286 -999
2010-03-23 08:40:42 51°13.687 2°55.83 105.1 3.8 286 -999
2010-03-23 08:40:48 51°13.689 2°55.82 104.7 3.8 286 -999
2010-03-23 08:40:52 51°13.69 2°55.814 104.3 3.6 286 -999
2010-03-23 08:40:57 51°13.692 2°55.807 103.9 3.6 286 -999
2010-03-23 08:41:02 51°13.693 2°55.799 103.3 3.5 286 -999
2010-03-23 08:41:07 51°13.695 2°55.792 102.9 3.4 285 -999
2010-03-23 08:41:12 51°13.696 2°55.784 102.3 3.4 285 4.8
2010-03-23 08:41:17 51°13.697 2°55.777 101.4 3.3 285 4.6
2010-03-23 08:41:22 51°13.698 2°55.771 100.6 3.2 284 4.8
2010-03-23 08:41:27 51°13.699 2°55.764 99.5 3.1 283 4.7
2010-03-23 08:41:32 51°13.7 2°55.758 98.2 3 283 4.9
2010-03-23 08:41:37 51°13.701 2°55.751 96.8 2.9 282 -999
2010-03-23 08:41:42 51°13.702 2°55.746 95.8 2.7 281 11.2
2010-03-23 08:41:46 51°13.703 2°55.741 94.1 2.5 280 11.2
2010-03-23 08:41:51 51°13.703 2°55.737 92.6 2.2 280 11.2
2010-03-23 08:41:56 51°13.704 2°55.733 89.8 1.8 280 11.5
2010-03-23 08:42:01 51°13.704 2°55.73 87.9 1.3 284 11.7
2010-03-23 08:42:06 51°13.704 2°55.728 85 1 281 11.7
2010-03-23 08:42:11 51°13.704 2°55.726 80.8 0.9 291 10.6
2010-03-23 08:42:16 51°13.705 2°55.725 77 0.6 287 10.5
2010-03-23 08:42:21 51°13.705 2°55.724 73.4 0.6 302 -999
2010-03-23 08:42:26 51°13.706 2°55.724 70 0.4 307 10.6
2010-03-23 08:42:30 51°13.706 2°55.723 66.7 0.4 326 10.6
2010-03-23 08:42:35 51°13.706 2°55.723 63.3 0.3 345 10.6
2010-03-23 08:42:40 51°13.707 2°55.723 60.7 0.5 349 10.6
2010-03-23 08:42:45 51°13.708 2°55.723 56.6 0.5 6 10.6
2010-03-23 08:42:50 51°13.709 2°55.723 53.8 0.6 7 10.6
2010-03-23 08:42:55 51°13.71 2°55.723 49.4 0.6 9 10.6
2010-03-23 08:43:00 51°13.711 2°55.724 45.7 0.7 10 -999
2010-03-23 08:43:05 51°13.712 2°55.724 41.3 0.8 12 -999
2010-03-23 08:43:10 51°13.713 2°55.724 37.7 0.9 11 -999
2010-03-23 08:43:16 51°13.715 2°55.725 33.9 1 13 10.6
2010-03-23 08:43:21 51°13.716 2°55.725 30.2 1.1 8 -999
2010-03-23 08:43:27 51°13.718 2°55.725 26.4 1.1 6 -999
2010-03-23 08:43:32 51°13.72 2°55.726 22.6 1.2 3 -999
2010-03-23 08:43:37 51°13.721 2°55.726 18.8 1.3 1 10.6
2010-03-23 08:43:42 51°13.723 2°55.726 15.8 1.4 359 10.7
2010-03-23 08:43:47 51°13.725 2°55.725 10.3 1.5 354 11.6
2010-03-23 08:43:53 51°13.728 2°55.725 6.4 1.6 351 -999
2010-03-23 08:43:57 51°13.73 2°55.724 2.4 1.7 348 10.7
2010-03-23 08:44:02 51°13.732 2°55.723 359.4 1.8 346 11.5
2010-03-23 08:44:07 51°13.735 2°55.722 356.2 2 341 10.7
2010-03-23 08:44:12 51°13.738 2°55.72 352.9 2.3 340 11.1
2010-03-23 08:44:17 51°13.741 2°55.717 348.7 2.7 336 10.7
2010-03-23 08:44:22 51°13.745 2°55.715 344.3 2.9 336 10.7
2010-03-23 08:44:26 51°13.748 2°55.712 340.3 3.4 333 10.7
2010-03-23 08:44:31 51°13.753 2°55.708 338 3.9 332 10.4
2010-03-23 08:44:36 51°13.758 2°55.703 336 4.4 330 10.3
2010-03-23 08:44:41 51°13.763 2°55.698 334.8 4.8 332 10.2
2010-03-23 08:44:46 51°13.77 2°55.692 334.6 5.1 332 10.1
2010-03-23 08:44:50 51°13.775 2°55.687 334.6 5.5 331 10.2
2010-03-23 08:44:56 51°13.783 2°55.68 334.7 5.9 332 10.1
2010-03-23 08:45:00 51°13.789 2°55.675 334.8 6.2 332 10
2010-03-23 08:45:05 51°13.797 2°55.668 334.8 6.4 333 10.1
2010-03-23 08:45:10 51°13.805 2°55.661 335 6.7 333 10
2010-03-23 08:45:15 51°13.813 2°55.654 335.7 6.9 335 10.2
2010-03-23 08:45:20 51°13.823 2°55.647 336.1 7.1 335 10.1
2010-03-23 08:45:25 51°13.832 2°55.64 336.1 7.3 334 10.1
2010-03-23 08:45:29 51°13.839 2°55.635 335.3 7.4 334 10
2010-03-23 08:45:34 51°13.848 2°55.627 335.2 7.6 334 10.1
2010-03-23 08:45:39 51°13.857 2°55.618 334.8 7.7 333 10.1
2010-03-23 08:45:44 51°13.867 2°55.611 334.7 7.8 333 10.2
2010-03-23 08:45:49 51°13.877 2°55.603 334.7 7.9 333 10.2
2010-03-23 08:45:54 51°13.887 2°55.595 334.8 8 334 10.2
2010-03-23 08:45:58 51°13.895 2°55.589 334.9 8.1 333 10.3
2010-03-23 08:46:04 51°13.908 2°55.58 334.7 8.2 333 10.3
2010-03-23 08:46:09 51°13.918 2°55.572 334.7 8.3 333 10.3
2010-03-23 08:46:14 51°13.928 2°55.563 335.4 8.4 333 10.3
2010-03-23 08:46:18 51°13.937 2°55.557 336.4 8.5 334 10.3
2010-03-23 08:46:24 51°13.95 2°55.547 336.9 8.6 334 10.3
2010-03-23 08:46:29 51°13.961 2°55.539 336.9 8.7 335 10.3
2010-03-23 08:46:34 51°13.972 2°55.531 337.6 8.8 336 10.3
2010-03-23 08:46:38 51°13.981 2°55.524 337.6 8.9 335 10.3
2010-03-23 08:46:44 51°13.994 2°55.514 337.5 8.9 335 10.3
2010-03-23 08:46:49 51°14.006 2°55.506 337.5 9 336 10.3
2010-03-23 08:46:54 51°14.017 2°55.498 337.6 9 335 10.3
2010-03-23 08:46:58 51°14.027 2°55.492 337.6 9.1 335 10.2
2010-03-23 08:47:04 51°14.041 2°55.482 337.4 9.2 335 10.2
2010-03-23 08:47:09 51°14.052 2°55.474 337.6 9.2 336 10.3
2010-03-23 08:47:14 51°14.064 2°55.465 337.9 9.2 335 10.3
2010-03-23 08:47:19 51°14.076 2°55.457 337.7 9.3 335 10.3
2010-03-23 08:47:24 51°14.088 2°55.448 337.5 9.3 335 10.3
2010-03-23 08:47:29 51°14.1 2°55.44 337.5 9.4 335 10.3
2010-03-23 08:47:34 51°14.112 2°55.431 337.5 9.4 335 10.3
2010-03-23 08:47:38 51°14.121 2°55.424 337.2 9.4 334 10.3
2010-03-23 08:47:44 51°14.135 2°55.413 336.6 9.5 334 10.3
2010-03-23 08:47:49 51°14.147 2°55.403 336.4 9.6 334 10.3
2010-03-23 08:47:54 51°14.159 2°55.393 336.4 9.7 333 10.3
2010-03-23 08:47:58 51°14.168 2°55.386 336.6 9.8 334 10.4
2010-03-23 08:48:04 51°14.183 2°55.373 336.1 9.9 332 10.4
2010-03-23 08:48:09 51°14.195 2°55.362 335.1 10 332 10.4
2010-03-23 08:48:14 51°14.207 2°55.352 334.4 10 331 10.4
2010-03-23 08:48:18 51°14.216 2°55.342 333.2 10.1 329 10.4
2010-03-23 08:48:24 51°14.23 2°55.328 331.3 10.2 328 10.4
2010-03-23 08:48:29 51°14.242 2°55.315 330 10.2 327 10.4
2010-03-23 08:48:34 51°14.254 2°55.303 329.9 10.2 328 10.4
2010-03-23 08:48:38 51°14.264 2°55.294 330.1 10.3 328 10.4
2010-03-23 08:48:44 51°14.278 2°55.279 329.6 10.3 327 10.6
2010-03-23 08:48:49 51°14.29 2°55.266 329.4 10.4 327 10.5
2010-03-23 08:48:54 51°14.302 2°55.254 329.4 10.4 327 10.1
2010-03-23 08:48:58 51°14.312 2°55.243 329 10.4 326 10.5
2010-03-23 08:49:04 51°14.326 2°55.228 328.9 10.5 327 10
2010-03-23 08:49:09 51°14.338 2°55.215 329 10.5 327 10.4
2010-03-23 08:49:14 51°14.35 2°55.202 328.8 10.5 326 10.2
2010-03-23 08:49:19 51°14.363 2°55.189 328.3 10.6 326 10.4
2010-03-23 08:49:24 51°14.375 2°55.176 328.7 10.6 326 10.3
2010-03-23 08:49:29 51°14.388 2°55.163 328.5 10.7 326 10.4
2010-03-23 08:49:34 51°14.4 2°55.15 328.5 10.8 326 10.4
2010-03-23 08:49:38 51°14.41 2°55.139 328.6 10.8 326 10.4
2010-03-23 08:49:44 51°14.425 2°55.123 328.3 10.8 326 10.7
2010-03-23 08:49:49 51°14.437 2°55.11 328.7 10.8 326 10.5
2010-03-23 08:49:54 51°14.45 2°55.097 329.7 10.8 327 10.8
2010-03-23 08:49:58 51°14.46 2°55.087 330 10.9 326 11.2
2010-03-23 08:50:04 51°14.475 2°55.07 329.6 11 326 11.1
2010-03-23 08:50:09 51°14.488 2°55.057 329.5 11 326 11.1
2010-03-23 08:50:14 51°14.501 2°55.044 329.8 11 327 11.3
2010-03-23 08:50:18 51°14.511 2°55.033 329.9 11 326 11.2
2010-03-23 08:50:24 51°14.526 2°55.016 329.3 11.2 324 11.3
2010-03-23 08:50:29 51°14.539 2°55.001 328.6 11.2 323 12
2010-03-23 08:50:34 51°14.552 2°54.987 328.8 11.3 325 12.1
2010-03-23 08:50:38 51°14.562 2°54.975 328.9 11.5 323 12.1
2010-03-23 08:50:44 51°14.577 2°54.956 328.3 11.5 322 12.4
2010-03-23 08:50:49 51°14.589 2°54.939 326.9 11.6 320 12.2
2010-03-23 08:50:54 51°14.602 2°54.922 325.7 11.7 318 11.9
2010-03-23 08:50:59 51°14.614 2°54.905 325.2 11.8 318 12
2010-03-23 08:51:04 51°14.626 2°54.887 325.7 11.9 319 12
2010-03-23 08:51:09 51°14.638 2°54.87 326.3 12 319 11.8
2010-03-23 08:51:14 51°14.651 2°54.852 326.7 12.1 319 11.9
2010-03-23 08:51:18 51°14.662 2°54.839 327.6 12.1 321 12.3
2010-03-23 08:51:24 51°14.677 2°54.818 328.9 12.2 321 12.3
2010-03-23 08:51:29 51°14.69 2°54.8 328.7 12.3 319 12
2010-03-23 08:51:34 51°14.701 2°54.78 325 12.5 313 11.3
2010-03-23 08:51:39 51°14.712 2°54.757 320 12.5 309 10.1
2010-03-23 08:51:44 51°14.721 2°54.734 314.7 12.5 304 10
2010-03-23 08:51:49 51°14.73 2°54.71 309.3 12.6 300 10.1
2010-03-23 08:51:54 51°14.738 2°54.685 304.9 12.6 296 10.1
2010-03-23 08:51:58 51°14.743 2°54.664 301.3 12.7 293 9.9
2010-03-23 08:52:04 51°14.749 2°54.632 297 12.7 289 10
2010-03-23 08:52:09 51°14.752 2°54.604 291.6 12.7 281 10.1
2010-03-23 08:52:14 51°14.754 2°54.576 284.7 12.7 276 10
2010-03-23 08:52:18 51°14.753 2°54.554 278.1 12.6 270 10
2010-03-23 08:52:24 51°14.751 2°54.521 271.1 12.6 264 10.1
2010-03-23 08:52:29 51°14.748 2°54.494 264.8 12.6 259 10
2010-03-23 08:52:34 51°14.744 2°54.466 260.7 12.7 258 10
2010-03-23 08:52:38 51°14.741 2°54.444 258.7 9.8 258 10
2010-03-23 08:52:44 51°14.736 2°54.41 257.5 12.4 256 10
2010-03-23 08:52:49 51°14.731 2°54.383 257.1 12.9 255 9.9
2010-03-23 08:52:54 51°14.724 2°54.357 253.8 12.7 248 10
2010-03-23 08:52:58 51°14.718 2°54.338 247.3 12.5 242 10
2010-03-23 08:53:04 51°14.705 2°54.311 239.7 12.3 235 10
2010-03-23 08:53:09 51°14.694 2°54.291 232.6 12.1 227 10
2010-03-23 08:53:14 51°14.681 2°54.274 225.4 12.1 223 10.1
2010-03-23 08:53:18 51°14.67 2°54.261 219.2 12.1 218 10.2
2010-03-23 08:53:24 51°14.654 2°54.24 215.7 12.3 217 10.1
2010-03-23 08:53:29 51°14.639 2°54.225 213.2 12.5 214 10.1
2010-03-23 08:53:34 51°14.624 2°54.21 210.7 12.8 214 10
2010-03-23 08:53:39 51°14.609 2°54.194 210.1 13 214 10
2010-03-23 08:53:44 51°14.594 2°54.176 211.6 13.3 217 10
2010-03-23 08:53:49 51°14.58 2°54.157 213.8 13.5 219 9.9
2010-03-23 08:53:54 51°14.566 2°54.137 217.6 13.7 222 10
2010-03-23 08:53:59 51°14.552 2°54.116 220.3 13.8 224 10
2010-03-23 08:54:04 51°14.538 2°54.094 222 14 224 10
2010-03-23 08:54:09 51°14.524 2°54.072 222.7 14 225 10.1
2010-03-23 08:54:14 51°14.51 2°54.052 222.6 13.9 222 9.9
2010-03-23 08:54:18 51°14.499 2°54.035 221.6 14.1 223 9.8
2010-03-23 08:54:24 51°14.481 2°54.009 221.5 14.2 222 9.8
2010-03-23 08:54:29 51°14.467 2°53.988 220.9 14.1 222 9.7
2010-03-23 08:54:34 51°14.452 2°53.967 220.4 14.2 221 9.8
2010-03-23 08:54:39 51°14.437 2°53.947 220.2 14.3 222 9.7
2010-03-23 08:54:44 51°14.423 2°53.925 220.9 14.3 224 9.8
2010-03-23 08:54:49 51°14.408 2°53.904 222.2 14.2 223 9.8
2010-03-23 08:54:54 51°14.394 2°53.881 222.6 14.3 225 9.8
2010-03-23 08:54:58 51°14.383 2°53.863 223.9 14.5 226 9.7
2010-03-23 08:55:04 51°14.366 2°53.836 224.4 14.4 225 9.8
2010-03-23 08:55:09 51°14.353 2°53.812 225.8 14.4 228 9.7
2010-03-23 08:55:14 51°14.339 2°53.789 226.5 14.5 226 9.7
2010-03-23 08:55:18 51°14.329 2°53.769 227.3 14.4 230 9.7
2010-03-23 08:55:24 51°14.313 2°53.741 228.1 14.3 228 9.6
2010-03-23 08:55:29 51°14.3 2°53.716 228.1 14.4 230 9.7
2010-03-23 08:55:34 51°14.287 2°53.692 229.1 14.5 229 9.7
2010-03-23 08:55:38 51°14.277 2°53.671 230.4 14.5 233 9.6
2010-03-23 08:55:44 51°14.262 2°53.642 231.5 14.4 230 9.6
2010-03-23 08:55:49 51°14.25 2°53.616 232 14.5 235 9.8
2010-03-23 08:55:54 51°14.238 2°53.591 233.5 14.4 232 9.5
2010-03-23 08:55:58 51°14.228 2°53.571 232.6 14.4 233 9.7
2010-03-23 08:56:04 51°14.214 2°53.539 234.1 14.5 235 9.7
2010-03-23 08:56:09 51°14.202 2°53.513 234.4 14.5 233 9.6
2010-03-23 08:56:14 51°14.19 2°53.487 234.2 14.5 235 9.8
2010-03-23 08:56:18 51°14.181 2°53.466 234.5 14.4 233 9.8
2010-03-23 08:56:24 51°14.167 2°53.435 234 14.5 234 9.8
2010-03-23 08:56:29 51°14.155 2°53.409 234.2 14.5 234 9.8
2010-03-23 08:56:34 51°14.142 2°53.384 233.8 14.5 233 9.8
2010-03-23 08:56:38 51°14.133 2°53.363 233.7 14.6 235 9.9
2010-03-23 08:56:44 51°14.119 2°53.332 234.4 14.5 233 9.9
2010-03-23 08:56:49 51°14.107 2°53.306 233.8 14.6 234 10
2010-03-23 08:56:54 51°14.095 2°53.28 234.4 14.5 233 9.9
2010-03-23 08:56:58 51°14.085 2°53.259 233.8 14.5 233 10
2010-03-23 08:57:04 51°14.07 2°53.229 232.5 14.6 231 9.9
2010-03-23 08:57:09 51°14.057 2°53.204 231.1 14.6 230 10.1
2010-03-23 08:57:14 51°14.044 2°53.18 230.5 14.6 230 10.1
2010-03-23 08:57:18 51°14.033 2°53.161 229.4 14.5 228 10
2010-03-23 08:57:24 51°14.017 2°53.132 228.3 14.6 229 10.1
2010-03-23 08:57:29 51°14.004 2°53.108 228.1 14.6 228 10.1
2010-03-23 08:57:34 51°13.99 2°53.085 227.5 14.5 227 10
2010-03-23 08:57:38 51°13.979 2°53.066 227.1 14.5 227 10
2010-03-23 08:57:44 51°13.962 2°53.037 226.5 14.6 227 10.1
2010-03-23 08:57:49 51°13.949 2°53.014 226.8 14.5 228 10.1
2010-03-23 08:57:54 51°13.935 2°52.991 227 14.4 226 10
2010-03-23 08:57:58 51°13.924 2°52.972 226.5 14.4 226 10.1
2010-03-23 08:58:04 51°13.907 2°52.944 226.5 14.6 227 10.1
2010-03-23 08:58:09 51°13.893 2°52.921 226.9 14.5 227 10.1
2010-03-23 08:58:14 51°13.88 2°52.897 227 14.5 228 10.1
2010-03-23 08:58:18 51°13.869 2°52.879 227.3 14.5 227 10
2010-03-23 08:58:24 51°13.853 2°52.85 226.9 14.6 228 10.2
2010-03-23 08:58:29 51°13.84 2°52.825 228.8 14.4 231 10.1
2010-03-23 08:58:34 51°13.827 2°52.801 229.9 14.4 229 10.1
2010-03-23 08:58:39 51°13.816 2°52.774 232 14.5 235 10.2
2010-03-23 08:58:44 51°13.804 2°52.749 233.8 14.5 233 10.1
2010-03-23 08:58:49 51°13.794 2°52.721 235.2 14.5 238 10.2
2010-03-23 08:58:54 51°13.782 2°52.695 237 14.4 235 10
2010-03-23 08:58:58 51°13.774 2°52.673 237 14.5 238 10.2
2010-03-23 08:59:04 51°13.762 2°52.64 239.6 14.5 240 10.1
2010-03-23 08:59:09 51°13.751 2°52.613 239.9 14.4 240 10.2
2010-03-23 08:59:14 51°13.742 2°52.584 241.1 14.4 242 10.1
2010-03-23 08:59:18 51°13.734 2°52.562 241.7 14.5 241 10.2
2010-03-23 08:59:24 51°13.723 2°52.528 243 14.5 243 10.2
2010-03-23 08:59:29 51°13.714 2°52.5 243.1 14.5 241 10.3
2010-03-23 08:59:34 51°13.704 2°52.471 243.4 14.4 243 10.4
2010-03-23 08:59:38 51°13.696 2°52.449 243.2 14.5 241 10.3
2010-03-23 08:59:44 51°13.686 2°52.414 242.8 14.6 243 10.3
2010-03-23 08:59:49 51°13.676 2°52.386 243.5 14.6 242 10.3
2010-03-23 08:59:54 51°13.667 2°52.357 243.9 14.5 243 10.3
2010-03-23 08:59:58 51°13.659 2°52.335 243.3 14.5 241 10.4
2010-03-23 09:00:04 51°13.648 2°52.301 243.2 14.5 243 10.3
2010-03-23 09:00:09 51°13.638 2°52.272 243.1 14.5 241 10.3
2010-03-23 09:00:14 51°13.629 2°52.244 242.8 14.5 243 10.3
2010-03-23 09:00:18 51°13.621 2°52.221 243.4 14.5 241 10.3
2010-03-23 09:00:24 51°13.609 2°52.188 242.6 14.5 241 10.4
2010-03-23 09:00:29 51°13.599 2°52.16 242.3 14.5 240 10.3
2010-03-23 09:00:34 51°13.59 2°52.132 241.8 14.5 240 10.4
2010-03-23 09:00:38 51°13.581 2°52.11 241.6 14.5 240 10.4
2010-03-23 09:00:44 51°13.569 2°52.077 241.3 14.5 240 10.4
2010-03-23 09:00:49 51°13.559 2°52.049 241 14.4 240 10.3
2010-03-23 09:00:54 51°13.549 2°52.022 240.6 14.5 239 10.5
2010-03-23 09:00:58 51°13.541 2°51.999 240.5 14.5 239 10.5
2010-03-23 09:01:04 51°13.529 2°51.966 240.9 14.5 240 10.5
2010-03-23 09:01:09 51°13.518 2°51.939 241.1 14.4 239 10.5
2010-03-23 09:01:14 51°13.508 2°51.911 241 14.5 239 10.5
2010-03-23 09:01:19 51°13.498 2°51.884 241.1 14.4 240 10.4
2010-03-23 09:01:24 51°13.488 2°51.856 240.8 14.5 239 10.6
2010-03-23 09:01:29 51°13.478 2°51.828 241.1 14.5 241 10.5
2010-03-23 09:01:34 51°13.468 2°51.801 241.4 14.5 239 10.4
2010-03-23 09:01:38 51°13.46 2°51.778 241.3 14.5 241 10.5
2010-03-23 09:01:44 51°13.448 2°51.745 241.3 14.4 239 10.5
2010-03-23 09:01:49 51°13.437 2°51.718 240.9 14.4 240 10.4
2010-03-23 09:01:54 51°13.427 2°51.69 240.5 14.5 239 10.5
2010-03-23 09:01:58 51°13.419 2°51.668 240.5 14.5 240 10.6
2010-03-23 09:02:04 51°13.407 2°51.635 240.8 14.4 239 10.5
2010-03-23 09:02:09 51°13.396 2°51.608 240.3 14.5 238 10.4
2010-03-23 09:02:14 51°13.386 2°51.58 240.2 14.5 240 10.5
2010-03-23 09:02:18 51°13.378 2°51.558 240.9 14.4 239 10.4
2010-03-23 09:02:24 51°13.365 2°51.525 240.4 14.5 239 10.6
2010-03-23 09:02:29 51°13.355 2°51.498 240.5 14.5 239 10.5
2010-03-23 09:02:34 51°13.345 2°51.47 240.4 14.5 239 10.5
2010-03-23 09:02:38 51°13.337 2°51.448 240.2 14.5 239 10.5
2010-03-23 09:02:44 51°13.324 2°51.415 240.5 14.5 239 10.6
2010-03-23 09:02:49 51°13.314 2°51.387 240.6 14.5 239 10.6
2010-03-23 09:02:54 51°13.304 2°51.36 240.6 14.5 240 10.5
2010-03-23 09:02:59 51°13.293 2°51.332 240.8 14.6 239 10.6
2010-03-23 09:03:04 51°13.283 2°51.304 240.8 14.5 240 10.5
2010-03-23 09:03:09 51°13.273 2°51.277 240.8 14.3 239 10.5
2010-03-23 09:03:14 51°13.263 2°51.251 240.5 13.9 240 10.5
2010-03-23 09:03:18 51°13.255 2°51.23 240.7 13.8 239 10.6
2010-03-23 09:03:24 51°13.244 2°51.199 240.4 13.6 239 10.7
2010-03-23 09:03:29 51°13.235 2°51.174 240.4 13.2 239 10.7
2010-03-23 09:03:34 51°13.225 2°51.15 240.2 12.9 239 10.8
2010-03-23 09:03:39 51°13.216 2°51.126 240.2 12.6 239 10.8
2010-03-23 09:03:44 51°13.208 2°51.103 240.2 12.3 239 10.7
2010-03-23 09:03:49 51°13.199 2°51.08 239.9 12.1 238 10.8
2010-03-23 09:03:54 51°13.19 2°51.057 240 12 239 10.8
2010-03-23 09:03:58 51°13.184 2°51.039 240.2 11.8 239 10.8
2010-03-23 09:04:04 51°13.174 2°51.013 240.1 11.7 239 10.8
2010-03-23 09:04:09 51°13.165 2°50.991 240.5 11.6 239 10.9
2010-03-23 09:04:14 51°13.157 2°50.969 240.3 11.5 239 10.9
2010-03-23 09:04:18 51°13.151 2°50.952 240.3 11.4 239 10.9
2010-03-23 09:04:24 51°13.141 2°50.926 240.3 11.4 239 10.9
2010-03-23 09:04:29 51°13.133 2°50.904 240.3 11.4 239 10.9
2010-03-23 09:04:34 51°13.125 2°50.882 240.6 11.3 240 10.8
2010-03-23 09:04:38 51°13.118 2°50.865 240.6 11.4 239 10.9
2010-03-23 09:04:44 51°13.109 2°50.839 240.5 11.4 240 10.9
2010-03-23 09:04:49 51°13.101 2°50.817 240.4 11.4 239 10.8
2010-03-23 09:04:54 51°13.092 2°50.796 240.1 11.4 239 11
2010-03-23 09:04:59 51°13.084 2°50.774 240.2 11.5 239 10.9
2010-03-23 09:05:04 51°13.076 2°50.752 240.4 11.4 239 10.8
2010-03-23 09:05:09 51°13.068 2°50.73 240.1 11.5 239 10.9
2010-03-23 09:05:14 51°13.06 2°50.708 240.1 11.5 240 10.9
2010-03-23 09:05:18 51°13.053 2°50.691 240.5 11.5 239 10.8
2010-03-23 09:05:24 51°13.044 2°50.665 240 11.5 240 11
2010-03-23 09:05:29 51°13.035 2°50.643 240.6 11.5 239 10.9
2010-03-23 09:05:34 51°13.027 2°50.621 240.3 11.5 239 10.9
2010-03-23 09:05:39 51°13.019 2°50.599 240.3 11.5 239 10.9
2010-03-23 09:05:44 51°13.011 2°50.577 240.3 11.5 239 11
2010-03-23 09:05:49 51°13.003 2°50.556 240.3 11.5 240 10.9
2010-03-23 09:05:54 51°12.994 2°50.534 240.3 11.5 239 10.9
2010-03-23 09:05:58 51°12.988 2°50.516 240.3 11.5 239 10.9
2010-03-23 09:06:04 51°12.978 2°50.49 240.2 11.5 238 11
2010-03-23 09:06:09 51°12.97 2°50.468 240.1 11.6 239 10.9
2010-03-23 09:06:14 51°12.961 2°50.446 240.1 11.6 239 10.9
2010-03-23 09:06:18 51°12.955 2°50.428 240 11.7 240 11
2010-03-23 09:06:24 51°12.945 2°50.401 240.6 11.7 239 10.9
2010-03-23 09:06:29 51°12.936 2°50.379 240.6 11.8 240 10.9
2010-03-23 09:06:34 51°12.928 2°50.356 240.9 11.8 239 10.9
2010-03-23 09:06:38 51°12.921 2°50.338 240.5 11.9 239 11
2010-03-23 09:06:44 51°12.912 2°50.311 240.9 11.8 240 10.8
2010-03-23 09:06:49 51°12.903 2°50.289 240.5 11.9 239 10.9
2010-03-23 09:06:54 51°12.895 2°50.266 240.3 11.9 241 10.9
2010-03-23 09:06:58 51°12.888 2°50.248 240.6 11.9 238 10.8
2010-03-23 09:07:04 51°12.878 2°50.22 240.2 11.9 240 10.9
2010-03-23 09:07:09 51°12.869 2°50.198 240.5 11.9 239 10.9
2010-03-23 09:07:14 51°12.861 2°50.175 240.3 11.9 240 10.9
2010-03-23 09:07:19 51°12.852 2°50.153 240.5 11.9 240 10.9
2010-03-23 09:07:24 51°12.844 2°50.13 240.8 12 240 10.9
2010-03-23 09:07:29 51°12.836 2°50.107 240.7 11.9 239 10.9
2010-03-23 09:07:34 51°12.827 2°50.084 240.7 12 240 10.8
2010-03-23 09:07:38 51°12.821 2°50.066 240.3 12 239 10.9
2010-03-23 09:07:44 51°12.81 2°50.039 240.6 12 239 10.9
2010-03-23 09:07:49 51°12.803 2°50.017 240.8 11.9 240 10.9
2010-03-23 09:07:54 51°12.795 2°49.995 240.6 11.9 239 10.9
2010-03-23 09:07:58 51°12.787 2°49.977 240.3 12 239 11
2010-03-23 09:08:04 51°12.776 2°49.949 240.3 11.9 239 10.9
2010-03-23 09:08:09 51°12.768 2°49.926 240.1 11.9 238 11
2010-03-23 09:08:14 51°12.759 2°49.903 239.9 12 239 10.9
2010-03-23 09:08:18 51°12.753 2°49.884 240.1 12 239 10.9
2010-03-23 09:08:24 51°12.742 2°49.857 240.3 12 239 10.9
2010-03-23 09:08:29 51°12.734 2°49.835 240.4 12 239 11
2010-03-23 09:08:34 51°12.726 2°49.812 240.4 12 240 10.9
2010-03-23 09:08:38 51°12.719 2°49.794 240.7 11.9 239 11
2010-03-23 09:08:44 51°12.708 2°49.766 240.1 12 239 10.9
2010-03-23 09:08:49 51°12.7 2°49.744 240.2 12 239 11
2010-03-23 09:08:54 51°12.691 2°49.721 240.3 11.9 239 10.9
2010-03-23 09:08:58 51°12.684 2°49.703 239.9 12 239 10.9
2010-03-23 09:09:04 51°12.674 2°49.676 239.7 12 239 10.9
2010-03-23 09:09:09 51°12.665 2°49.653 240.2 12 239 11
2010-03-23 09:09:14 51°12.657 2°49.631 239.8 12 239 10.9
2010-03-23 09:09:19 51°12.648 2°49.608 240.1 12 239 11.1
2010-03-23 09:09:24 51°12.64 2°49.585 240.2 12 239 10.9
2010-03-23 09:09:29 51°12.631 2°49.563 240.3 12 239 11
2010-03-23 09:09:34 51°12.622 2°49.54 240.2 12 239 11
2010-03-23 09:09:38 51°12.616 2°49.521 240.3 12 240 10.9
2010-03-23 09:09:44 51°12.606 2°49.494 240.3 12 239 11
2010-03-23 09:09:49 51°12.597 2°49.472 240.4 12 240 10.9
2010-03-23 09:09:54 51°12.589 2°49.449 240.6 12 239 10.9
2010-03-23 09:09:59 51°12.58 2°49.426 240.3 12 239 11
2010-03-23 09:10:04 51°12.572 2°49.403 240.2 12 239 11
2010-03-23 09:10:09 51°12.563 2°49.38 240.2 12 239 11
2010-03-23 09:10:14 51°12.555 2°49.358 240.3 12 240 10.9
2010-03-23 09:10:18 51°12.548 2°49.339 240.3 12 240 11
2010-03-23 09:10:24 51°12.538 2°49.312 240.5 12 240 11
2010-03-23 09:10:29 51°12.53 2°49.289 241.4 12 241 11
2010-03-23 09:10:34 51°12.522 2°49.265 241.8 12 241 10.9
2010-03-23 09:10:38 51°12.515 2°49.247 242.5 12 242 11
2010-03-23 09:10:44 51°12.506 2°49.218 243.1 12 242 10.9
2010-03-23 09:10:49 51°12.498 2°49.195 243.3 12 242 10.9
2010-03-23 09:10:54 51°12.49 2°49.172 243.4 12 242 11
2010-03-23 09:10:58 51°12.484 2°49.153 244 12 242 11
2010-03-23 09:11:04 51°12.475 2°49.125 243.6 12 242 11
2010-03-23 09:11:09 51°12.467 2°49.101 243.7 12 242 11
2010-03-23 09:11:14 51°12.459 2°49.077 243.4 12 242 11.1
2010-03-23 09:11:18 51°12.453 2°49.059 243.4 12 242 11
2010-03-23 09:11:24 51°12.444 2°49.03 243.4 12 242 11.1
2010-03-23 09:11:29 51°12.436 2°49.007 243.4 12 243 11
2010-03-23 09:11:34 51°12.429 2°48.983 244.2 12 244 11
2010-03-23 09:11:38 51°12.423 2°48.964 245.2 12 244 11.1
2010-03-23 09:11:44 51°12.414 2°48.935 245.7 12 245 10.9
2010-03-23 09:11:49 51°12.407 2°48.911 246.1 12 245 11.1
2010-03-23 09:11:54 51°12.4 2°48.886 246.7 12.1 245 11
2010-03-23 09:11:58 51°12.395 2°48.867 247.3 12.1 246 11
2010-03-23 09:12:04 51°12.387 2°48.837 248.2 12.1 247 11.1
2010-03-23 09:12:09 51°12.381 2°48.813 248.9 12 247 11.2
2010-03-23 09:12:14 51°12.374 2°48.788 249.1 12.1 248 11.2
2010-03-23 09:12:18 51°12.369 2°48.768 249.8 12.1 249 11.2
2010-03-23 09:12:24 51°12.362 2°48.739 249.9 12.1 248 11.2
2010-03-23 09:12:29 51°12.356 2°48.714 250 12.1 249 11.2
2010-03-23 09:12:34 51°12.349 2°48.689 250 12.1 248 11.3
2010-03-23 09:12:38 51°12.344 2°48.669 250.1 12.1 249 11.3
2010-03-23 09:12:44 51°12.337 2°48.64 249.8 12.1 248 11.4
2010-03-23 09:12:49 51°12.33 2°48.615 249.9 12.1 248 11.3
2010-03-23 09:12:54 51°12.324 2°48.59 249.8 12.1 248 11.3
2010-03-23 09:12:58 51°12.319 2°48.57 249.8 12.1 248 11.5
2010-03-23 09:13:04 51°12.312 2°48.541 250 12.1 248 11.4
2010-03-23 09:13:09 51°12.305 2°48.516 250 12.1 248 11.4
2010-03-23 09:13:14 51°12.299 2°48.491 249.7 12.1 248 11.6
2010-03-23 09:13:18 51°12.294 2°48.471 249.8 12.1 248 11.5
2010-03-23 09:13:24 51°12.286 2°48.442 249.4 12.1 248 11.5
2010-03-23 09:13:29 51°12.28 2°48.417 249.5 12.1 248 11.5
2010-03-23 09:13:34 51°12.274 2°48.392 249.6 12.1 247 11.6
2010-03-23 09:13:39 51°12.268 2°48.368 249.6 12.1 249 11.6
2010-03-23 09:13:44 51°12.261 2°48.343 249.9 12.1 248 11.5
2010-03-23 09:13:49 51°12.255 2°48.318 249.6 12.1 248 11.6
2010-03-23 09:13:54 51°12.249 2°48.293 249.5 12.1 248 11.7
2010-03-23 09:13:58 51°12.243 2°48.274 249.8 12.1 248 11.7
2010-03-23 09:14:04 51°12.235 2°48.245 249.5 12.1 248 11.7
2010-03-23 09:14:09 51°12.228 2°48.22 249.6 12.1 248 11.7
2010-03-23 09:14:14 51°12.222 2°48.195 249.8 12.1 248 11.7
2010-03-23 09:14:18 51°12.217 2°48.176 249.4 12.1 248 11.7
2010-03-23 09:14:24 51°12.21 2°48.145 249.7 12.1 248 11.7
2010-03-23 09:14:29 51°12.204 2°48.12 249.8 12.1 248 11.8
2010-03-23 09:14:34 51°12.198 2°48.096 249.8 12.1 248 11.8
2010-03-23 09:14:38 51°12.193 2°48.076 249.7 12.1 249 11.8
2010-03-23 09:14:44 51°12.185 2°48.046 249.8 12.1 248 11.8
2010-03-23 09:14:49 51°12.18 2°48.021 249.7 12.1 249 11.9
2010-03-23 09:14:54 51°12.173 2°47.996 249.8 12.1 247 11.9
2010-03-23 09:14:58 51°12.168 2°47.976 249.5 12.1 249 11.9
2010-03-23 09:15:04 51°12.161 2°47.947 249.8 12.1 248 11.9
2010-03-23 09:15:09 51°12.154 2°47.922 249.7 12.1 248 12
2010-03-23 09:15:14 51°12.148 2°47.897 249.8 12.1 248 12
2010-03-23 09:15:18 51°12.143 2°47.877 249.8 12.1 249 12
2010-03-23 09:15:24 51°12.136 2°47.847 249.9 12.1 248 12
2010-03-23 09:15:29 51°12.13 2°47.822 249.8 12.1 248 11.9
2010-03-23 09:15:34 51°12.123 2°47.798 249.8 12.1 248 11.9
2010-03-23 09:15:38 51°12.118 2°47.778 249.8 12.1 248 12.1
2010-03-23 09:15:44 51°12.111 2°47.748 249.4 12.1 249 11.9
2010-03-23 09:15:49 51°12.105 2°47.723 249.6 12.1 247 12.1
2010-03-23 09:15:54 51°12.098 2°47.698 249.7 12.1 248 12
2010-03-23 09:15:59 51°12.092 2°47.674 249.4 12.1 248 12
2010-03-23 09:16:04 51°12.086 2°47.649 249.1 12.2 248 12.1
2010-03-23 09:16:09 51°12.079 2°47.624 249 12.2 248 12.1
2010-03-23 09:16:14 51°12.073 2°47.599 249 12.3 248 12.1
2010-03-23 09:16:19 51°12.067 2°47.574 249 12.3 248 12.1
2010-03-23 09:16:24 51°12.06 2°47.549 249.5 12.3 248 12
2010-03-23 09:16:29 51°12.054 2°47.523 249.3 12.4 248 12.2
2010-03-23 09:16:34 51°12.047 2°47.498 249.6 12.4 248 12.2
2010-03-23 09:16:38 51°12.042 2°47.477 249.6 12.4 248 12.2
2010-03-23 09:16:44 51°12.034 2°47.447 249.1 12.4 248 12.2
2010-03-23 09:16:49 51°12.028 2°47.421 249.2 12.4 248 12.3
2010-03-23 09:16:54 51°12.021 2°47.396 249.5 12.4 248 12.2
2010-03-23 09:16:58 51°12.016 2°47.376 249.4 12.5 248 12.2
2010-03-23 09:17:04 51°12.009 2°47.345 249.6 12.5 248 12.3
2010-03-23 09:17:09 51°12.002 2°47.319 249.7 12.5 248 12.3
2010-03-23 09:17:14 51°11.996 2°47.294 249.6 12.5 248 12.3
2010-03-23 09:17:18 51°11.991 2°47.273 249.6 12.5 248 12.3
2010-03-23 09:17:23 51°11.984 2°47.248 249.6 12.5 248 12.3
2010-03-23 09:17:29 51°11.976 2°47.217 249.3 12.5 248 12.3
2010-03-23 09:17:33 51°11.972 2°47.196 249.8 12.4 249 12.2
2010-03-23 09:17:38 51°11.965 2°47.171 249.6 12.4 247 12.3
2010-03-23 09:17:43 51°11.959 2°47.145 249.2 12.5 249 12.4
2010-03-23 09:17:49 51°11.951 2°47.115 249.2 12.5 248 12.3
2010-03-23 09:17:54 51°11.944 2°47.089 249 12.5 248 12.3
2010-03-23 09:17:58 51°11.939 2°47.069 249 12.5 248 12.3
2010-03-23 09:18:04 51°11.931 2°47.038 249.5 12.5 248 12.3
2010-03-23 09:18:09 51°11.925 2°47.012 249.6 12.5 248 12.3
2010-03-23 09:18:14 51°11.919 2°46.987 249.7 12.5 248 12.3
2010-03-23 09:18:18 51°11.913 2°46.966 249.5 12.5 248 12.4
2010-03-23 09:18:24 51°11.906 2°46.935 249.2 12.5 248 12.4
2010-03-23 09:18:28 51°11.901 2°46.915 249.3 12.5 249 12.4
2010-03-23 09:18:34 51°11.893 2°46.884 249.6 12.5 248 12.3
2010-03-23 09:18:38 51°11.888 2°46.864 249.6 12.5 248 12.4
2010-03-23 09:18:43 51°11.881 2°46.838 249.6 12.5 248 12.4
2010-03-23 09:18:49 51°11.874 2°46.808 249.3 12.5 248 12.4
2010-03-23 09:18:53 51°11.868 2°46.787 249.6 12.5 248 12.4
2010-03-23 09:18:58 51°11.862 2°46.762 249.5 12.5 248 12.4
2010-03-23 09:19:03 51°11.855 2°46.736 249.2 12.5 248 12.4
2010-03-23 09:19:09 51°11.847 2°46.705 249.3 12.5 248 12.4
2010-03-23 09:19:13 51°11.842 2°46.685 249.3 12.5 247 12.5
2010-03-23 09:19:18 51°11.836 2°46.659 249.1 12.5 248 12.4
2010-03-23 09:19:24 51°11.828 2°46.629 249 12.5 247 12.5
2010-03-23 09:19:29 51°11.821 2°46.603 248.9 12.5 248 12.6
2010-03-23 09:19:34 51°11.815 2°46.578 249.1 12.5 248 12.5
2010-03-23 09:19:38 51°11.809 2°46.557 249.1 12.5 248 12.7
2010-03-23 09:19:44 51°11.802 2°46.526 249.1 12.5 248 12.6
2010-03-23 09:19:49 51°11.795 2°46.501 249.5 12.5 248 12.6
2010-03-23 09:19:54 51°11.789 2°46.475 249.6 12.5 249 12.6
2010-03-23 09:19:58 51°11.784 2°46.454 249.6 12.5 248 12.6
2010-03-23 09:20:03 51°11.777 2°46.428 249.3 12.5 248 12.6
2010-03-23 09:20:09 51°11.769 2°46.398 249.3 12.5 248 12.6
2010-03-23 09:20:13 51°11.764 2°46.377 249.3 12.5 248 12.6
2010-03-23 09:20:18 51°11.757 2°46.352 249.2 12.5 248 12.6
2010-03-23 09:20:23 51°11.751 2°46.326 249.4 12.4 248 12.6
2010-03-23 09:20:28 51°11.744 2°46.301 249 12.5 248 12.6
2010-03-23 09:20:34 51°11.737 2°46.27 249 12.5 248 12.6
2010-03-23 09:20:38 51°11.731 2°46.25 249.1 12.4 248 12.5
2010-03-23 09:20:43 51°11.725 2°46.224 248.9 12.5 247 12.5
2010-03-23 09:20:49 51°11.717 2°46.194 249 12.5 248 12.6
2010-03-23 09:20:54 51°11.711 2°46.168 249.2 12.5 248 12.5
2010-03-23 09:20:58 51°11.706 2°46.148 249.3 12.5 248 12.5
2010-03-23 09:21:04 51°11.698 2°46.117 249.5 12.5 248 12.5
2010-03-23 09:21:09 51°11.692 2°46.092 249.4 12.5 248 12.5
2010-03-23 09:21:14 51°11.685 2°46.066 249.3 12.4 248 12.5
2010-03-23 09:21:18 51°11.68 2°46.046 249 12.5 248 12.5
2010-03-23 09:21:24 51°11.672 2°46.015 249 12.5 248 12.5
2010-03-23 09:21:29 51°11.666 2°45.99 249.2 12.4 248 12.5
2010-03-23 09:21:33 51°11.661 2°45.969 249.7 12.4 249 12.5
2010-03-23 09:21:38 51°11.654 2°45.944 249.7 12.4 248 12.6
2010-03-23 09:21:44 51°11.647 2°45.913 249.6 12.5 248 12.6
2010-03-23 09:21:49 51°11.64 2°45.888 249.6 12.4 249 12.5
2010-03-23 09:21:53 51°11.635 2°45.867 249.6 12.4 248 12.6
2010-03-23 09:21:58 51°11.629 2°45.842 249.3 12.4 248 12.4
2010-03-23 09:22:03 51°11.622 2°45.816 249.2 12.5 248 12.6
2010-03-23 09:22:09 51°11.615 2°45.786 249.5 12.4 249 12.5
2010-03-23 09:22:13 51°11.61 2°45.765 249.5 12.4 248 12.5
2010-03-23 09:22:18 51°11.603 2°45.739 249.2 12.5 249 12.5
2010-03-23 09:22:23 51°11.597 2°45.714 249.6 12.4 247 12.5
2010-03-23 09:22:28 51°11.59 2°45.688 249.3 12.5 248 12.5
2010-03-23 09:22:34 51°11.583 2°45.658 249.2 12.5 248 12.5
2010-03-23 09:22:38 51°11.577 2°45.637 249.6 12.5 248 12.5
2010-03-23 09:22:43 51°11.571 2°45.612 249.3 12.5 248 12.5
2010-03-23 09:22:48 51°11.565 2°45.586 249.3 12.4 248 12.4
2010-03-23 09:22:53 51°11.558 2°45.561 249 12.5 247 12.5
2010-03-23 09:22:58 51°11.551 2°45.535 248.9 12.5 248 12.4
2010-03-23 09:23:03 51°11.545 2°45.51 249.1 12.5 247 12.4
2010-03-23 09:23:09 51°11.537 2°45.479 249.1 12.5 248 12.4
2010-03-23 09:23:14 51°11.53 2°45.454 249.2 12.5 247 12.5
2010-03-23 09:23:18 51°11.525 2°45.433 249.1 12.5 249 12.3
2010-03-23 09:23:24 51°11.517 2°45.402 249.4 12.5 248 12.5
2010-03-23 09:23:29 51°11.511 2°45.377 249.6 12.5 248 12.3
2010-03-23 09:23:33 51°11.506 2°45.356 249.3 12.5 247 12.4
2010-03-23 09:23:38 51°11.499 2°45.33 249.1 12.5 248 12.3
2010-03-23 09:23:44 51°11.491 2°45.3 249.3 12.5 248 12.3
2010-03-23 09:23:48 51°11.486 2°45.279 249.3 12.5 248 12.4
2010-03-23 09:23:53 51°11.48 2°45.253 249.5 12.6 248 12.4
2010-03-23 09:23:58 51°11.474 2°45.228 249.3 12.5 248 12.3
2010-03-23 09:24:04 51°11.466 2°45.197 249.1 12.5 248 12.3
2010-03-23 09:24:09 51°11.459 2°45.171 249 12.5 247 12.3
2010-03-23 09:24:13 51°11.454 2°45.151 249 12.6 249 12.4
2010-03-23 09:24:18 51°11.448 2°45.125 249.5 12.5 248 12.4
2010-03-23 09:24:23 51°11.441 2°45.1 249.3 12.5 248 12.4
2010-03-23 09:24:29 51°11.433 2°45.069 249.1 12.6 248 12.4
2010-03-23 09:24:33 51°11.428 2°45.048 249.1 12.5 249 12.2
2010-03-23 09:24:38 51°11.422 2°45.023 249.3 12.5 248 12.3
2010-03-23 09:24:44 51°11.414 2°44.992 249 12.6 248 12.4
2010-03-23 09:24:49 51°11.407 2°44.966 249.2 12.5 248 12.3
2010-03-23 09:24:54 51°11.401 2°44.94 249.2 12.5 249 12.3
2010-03-23 09:24:58 51°11.396 2°44.92 249 12.5 248 12.4
2010-03-23 09:25:03 51°11.39 2°44.894 249.2 12.5 249 12.3
2010-03-23 09:25:08 51°11.383 2°44.868 249.4 12.5 248 12.2
2010-03-23 09:25:13 51°11.377 2°44.843 249.3 12.5 248 12.4
2010-03-23 09:25:18 51°11.371 2°44.817 249.6 12.5 249 12.3
2010-03-23 09:25:24 51°11.363 2°44.786 249.4 12.5 248 12.3
2010-03-23 09:25:28 51°11.358 2°44.766 249.4 12.5 249 12.3
2010-03-23 09:25:33 51°11.351 2°44.74 249.3 12.5 248 12.3
2010-03-23 09:25:38 51°11.345 2°44.714 249 12.5 248 12.3
2010-03-23 09:25:44 51°11.337 2°44.684 249 12.5 248 12.2
2010-03-23 09:25:48 51°11.332 2°44.663 248.9 12.5 248 12.2
2010-03-23 09:25:53 51°11.326 2°44.637 249 12.5 249 12.2
2010-03-23 09:25:58 51°11.319 2°44.612 249.2 12.5 248 12.3
2010-03-23 09:26:04 51°11.312 2°44.581 249 12.5 249 12.2
2010-03-23 09:26:09 51°11.305 2°44.556 249.2 12.5 248 12.3
2010-03-23 09:26:13 51°11.3 2°44.535 249.2 12.5 249 12.3
2010-03-23 09:26:18 51°11.294 2°44.51 249.4 12.5 249 12.2
2010-03-23 09:26:24 51°11.286 2°44.479 249.5 12.5 249 12.2
2010-03-23 09:26:28 51°11.281 2°44.458 249.2 12.5 249 12.2
2010-03-23 09:26:33 51°11.275 2°44.432 249.5 12.5 249 12.2
2010-03-23 09:26:38 51°11.268 2°44.407 249.5 12.5 248 12.2
2010-03-23 09:26:44 51°11.261 2°44.376 249.3 12.5 249 12.2
2010-03-23 09:26:49 51°11.254 2°44.351 249.3 12.5 248 12.2
2010-03-23 09:26:53 51°11.249 2°44.33 249.1 12.5 249 12.2
2010-03-23 09:26:58 51°11.242 2°44.305 249 12.4 248 12.1
2010-03-23 09:27:03 51°11.236 2°44.279 249 12.4 248 12.2
2010-03-23 09:27:09 51°11.228 2°44.248 249 12.5 248 12.2
2010-03-23 09:27:13 51°11.223 2°44.228 249.3 12.4 249 12.1
2010-03-23 09:27:18 51°11.217 2°44.202 249.3 12.5 248 12.1
2010-03-23 09:27:23 51°11.211 2°44.177 249.5 12.5 249 12.2
2010-03-23 09:27:28 51°11.204 2°44.151 249.4 12.5 248 12.1
2010-03-23 09:27:34 51°11.197 2°44.12 249 12.5 249 12.2
2010-03-23 09:27:38 51°11.191 2°44.1 249.2 12.5 248 12.1
2010-03-23 09:27:44 51°11.184 2°44.069 249.5 12.5 249 12.2
2010-03-23 09:27:48 51°11.179 2°44.049 249.3 12.5 248 12.2
2010-03-23 09:27:53 51°11.172 2°44.023 249.4 12.5 249 12.1
2010-03-23 09:27:58 51°11.166 2°43.997 249.4 12.5 248 12.1
2010-03-23 09:28:03 51°11.16 2°43.971 249.5 12.5 249 12
2010-03-23 09:28:09 51°11.152 2°43.941 249.4 12.5 248 12.1
2010-03-23 09:28:13 51°11.147 2°43.92 249.1 12.5 249 12.1
2010-03-23 09:28:18 51°11.141 2°43.894 249.1 12.5 248 12.1
2010-03-23 09:28:24 51°11.133 2°43.863 249.1 12.5 249 12
2010-03-23 09:28:29 51°11.127 2°43.838 249 12.5 248 12
2010-03-23 09:28:33 51°11.122 2°43.817 249 12.5 248 12.1
2010-03-23 09:28:38 51°11.115 2°43.791 248.9 12.6 248 12
2010-03-23 09:28:44 51°11.108 2°43.761 249 12.5 249 12
2010-03-23 09:28:48 51°11.103 2°43.74 249.1 12.5 249 11.9
2010-03-23 09:28:53 51°11.096 2°43.714 249 12.5 248 12
2010-03-23 09:28:58 51°11.09 2°43.688 249 12.5 249 12.1
2010-03-23 09:29:03 51°11.083 2°43.663 249.2 12.5 248 12
2010-03-23 09:29:08 51°11.077 2°43.637 249.1 12.5 249 12.1
2010-03-23 09:29:13 51°11.071 2°43.611 249.1 12.5 249 12
2010-03-23 09:29:18 51°11.065 2°43.585 249.4 12.6 249 12
2010-03-23 09:29:24 51°11.057 2°43.554 249.4 12.5 249 12
2010-03-23 09:29:28 51°11.052 2°43.533 249.6 12.5 249 12
2010-03-23 09:29:33 51°11.046 2°43.508 249.1 12.6 249 12
2010-03-23 09:29:38 51°11.04 2°43.482 249.5 12.5 249 12
2010-03-23 09:29:43 51°11.033 2°43.456 249.6 12.6 248 12
2010-03-23 09:29:49 51°11.026 2°43.425 249.4 12.6 250 11.9
2010-03-23 09:29:53 51°11.021 2°43.404 249.6 12.5 249 12
2010-03-23 09:29:58 51°11.014 2°43.378 249.2 12.6 249 12
2010-03-23 09:30:04 51°11.007 2°43.347 249.2 12.6 249 11.9
2010-03-23 09:30:08 51°11.002 2°43.326 249.2 12.6 249 12
2010-03-23 09:30:13 51°10.996 2°43.301 249.4 12.6 249 12
2010-03-23 09:30:18 51°10.989 2°43.275 249.7 12.6 249 12
2010-03-23 09:30:24 51°10.982 2°43.244 249.3 12.6 249 12
2010-03-23 09:30:28 51°10.977 2°43.223 249.1 12.6 249 11.9
2010-03-23 09:30:33 51°10.97 2°43.197 249.1 12.6 249 11.9
2010-03-23 09:30:38 51°10.964 2°43.171 249.1 12.6 249 11.9
2010-03-23 09:30:43 51°10.958 2°43.145 249.1 12.6 249 11.7
2010-03-23 09:30:48 51°10.952 2°43.119 249.2 12.6 249 11.9
2010-03-23 09:30:53 51°10.945 2°43.093 249.3 12.6 249 11.8
2010-03-23 09:30:58 51°10.939 2°43.068 249.6 12.6 249 11.8
2010-03-23 09:31:03 51°10.933 2°43.042 249.2 12.6 249 11.9
2010-03-23 09:31:09 51°10.925 2°43.011 249 12.6 249 11.9
2010-03-23 09:31:13 51°10.92 2°42.99 249.3 12.6 249 11.9
2010-03-23 09:31:18 51°10.914 2°42.964 249.2 12.6 249 11.9
2010-03-23 09:31:23 51°10.908 2°42.938 249.1 12.7 249 11.8
2010-03-23 09:31:29 51°10.9 2°42.906 248.9 12.7 248 11.8
2010-03-23 09:31:34 51°10.893 2°42.88 248.6 12.8 249 11.8
2010-03-23 09:31:38 51°10.888 2°42.859 249.2 12.9 250 11.8
2010-03-23 09:31:44 51°10.881 2°42.827 249.2 12.9 248 11.8
2010-03-23 09:31:48 51°10.875 2°42.805 249.2 13 250 11.8
2010-03-23 09:31:54 51°10.868 2°42.772 249.3 13.1 249 11.9
2010-03-23 09:31:58 51°10.863 2°42.751 249.6 13.1 250 11.8
2010-03-23 09:32:03 51°10.857 2°42.724 249.8 13.1 249 11.8
2010-03-23 09:32:08 51°10.85 2°42.696 249.6 13.2 249 11.7
2010-03-23 09:32:13 51°10.844 2°42.669 249.3 13.2 249 11.7
2010-03-23 09:32:18 51°10.837 2°42.642 249.3 13.2 249 11.7
2010-03-23 09:32:23 51°10.83 2°42.615 249 13.2 249 11.8
2010-03-23 09:32:28 51°10.824 2°42.588 249.2 13.2 249 11.7
2010-03-23 09:32:33 51°10.817 2°42.561 249.2 13.2 249 11.7
2010-03-23 09:32:38 51°10.811 2°42.534 249 13.2 249 11.8
2010-03-23 09:32:43 51°10.804 2°42.506 249 13.2 249 11.7
2010-03-23 09:32:48 51°10.797 2°42.479 249 13.2 249 11.8
2010-03-23 09:32:53 51°10.791 2°42.452 249.2 13.2 250 11.7
2010-03-23 09:32:58 51°10.785 2°42.425 249.2 13.2 249 11.7
2010-03-23 09:33:03 51°10.778 2°42.398 249.2 13.2 249 11.7
2010-03-23 09:33:09 51°10.77 2°42.365 249 13.2 249 11.7
2010-03-23 09:33:13 51°10.765 2°42.343 249 13.2 249 11.7
2010-03-23 09:33:18 51°10.758 2°42.316 249 13.2 249 11.7
2010-03-23 09:33:22 51°10.753 2°42.294 249.2 13.2 249 11.7
2010-03-23 09:33:29 51°10.744 2°42.256 249.5 13.2 249 11.7
2010-03-23 09:33:33 51°10.739 2°42.234 249.5 13.2 249 11.7
2010-03-23 09:33:38 51°10.733 2°42.207 249.3 13.2 249 11.7
2010-03-23 09:33:43 51°10.726 2°42.18 249 13.2 249 11.7
2010-03-23 09:33:48 51°10.719 2°42.153 248.9 13.2 249 11.8
2010-03-23 09:33:53 51°10.713 2°42.126 248.9 13.2 249 11.8
2010-03-23 09:33:58 51°10.706 2°42.099 248.8 13.2 249 11.8
2010-03-23 09:34:04 51°10.698 2°42.066 249.1 13.1 249 11.7
2010-03-23 09:34:08 51°10.693 2°42.044 249 13.2 249 11.7
2010-03-23 09:34:14 51°10.686 2°42.012 249.1 13.3 250 11.7
2010-03-23 09:34:18 51°10.68 2°41.99 249.6 13.2 250 11.7
2010-03-23 09:34:23 51°10.674 2°41.963 249.6 13.2 249 11.7
2010-03-23 09:34:28 51°10.667 2°41.935 249.3 13.2 250 11.7
2010-03-23 09:34:33 51°10.661 2°41.907 249.3 13.3 249 11.8
2010-03-23 09:34:38 51°10.655 2°41.879 249.5 13.3 250 11.7
2010-03-23 09:34:44 51°10.647 2°41.846 249.6 13.4 249 11.8
2010-03-23 09:34:49 51°10.64 2°41.818 249.4 13.4 249 11.7
2010-03-23 09:34:53 51°10.635 2°41.796 249.3 13.6 249 11.8
2010-03-23 09:34:58 51°10.628 2°41.768 249.1 13.6 249 11.7
2010-03-23 09:35:04 51°10.619 2°41.735 248.9 13.6 248 11.7
2010-03-23 09:35:08 51°10.614 2°41.713 248.5 13.5 248 11.7
2010-03-23 09:35:13 51°10.606 2°41.685 247.8 13.6 247 11.6
2010-03-23 09:35:18 51°10.599 2°41.658 247.3 13.6 247 11.7
2010-03-23 09:35:23 51°10.591 2°41.63 247.2 13.6 247 11.7
2010-03-23 09:35:29 51°10.583 2°41.597 247 13.6 247 11.6
2010-03-23 09:35:33 51°10.577 2°41.575 247.1 13.6 248 11.6
2010-03-23 09:35:38 51°10.569 2°41.547 247.3 13.6 247 11.6
2010-03-23 09:35:43 51°10.562 2°41.519 247.3 13.7 247 11.7
2010-03-23 09:35:49 51°10.554 2°41.486 247.4 13.7 248 11.6
2010-03-23 09:35:53 51°10.548 2°41.464 247.4 13.7 247 11.6
2010-03-23 09:35:58 51°10.541 2°41.436 247.4 13.6 248 11.6
2010-03-23 09:36:03 51°10.533 2°41.408 247.4 13.6 248 11.6
2010-03-23 09:36:08 51°10.526 2°41.38 247.5 13.7 248 11.7
2010-03-23 09:36:14 51°10.518 2°41.347 247.6 13.6 247 11.6
2010-03-23 09:36:18 51°10.512 2°41.324 247.3 13.6 248 11.6
2010-03-23 09:36:24 51°10.503 2°41.291 247.2 13.6 248 11.6
2010-03-23 09:36:28 51°10.497 2°41.269 247.3 13.6 247 11.7
2010-03-23 09:36:34 51°10.489 2°41.235 247.3 13.6 248 11.6
2010-03-23 09:36:38 51°10.483 2°41.213 247.4 13.6 247 11.6
2010-03-23 09:36:43 51°10.475 2°41.186 246.9 13.7 247 11.7
2010-03-23 09:36:48 51°10.468 2°41.158 246.9 13.6 247 11.6
2010-03-23 09:36:53 51°10.461 2°41.13 247 13.6 247 11.6
2010-03-23 09:36:58 51°10.454 2°41.102 247.3 13.6 248 11.6
2010-03-23 09:37:04 51°10.445 2°41.069 247.6 13.6 248 11.5
2010-03-23 09:37:09 51°10.438 2°41.041 247.6 13.6 248 11.6
2010-03-23 09:37:13 51°10.432 2°41.019 247.6 13.6 248 11.7
2010-03-23 09:37:18 51°10.425 2°40.992 247.5 13.6 247 11.6
2010-03-23 09:37:24 51°10.416 2°40.959 246.9 13.6 247 11.6
2010-03-23 09:37:28 51°10.41 2°40.937 246.8 13.5 247 11.6
2010-03-23 09:37:33 51°10.403 2°40.909 246.9 13.5 247 11.6
2010-03-23 09:37:38 51°10.396 2°40.881 246.8 13.6 247 11.7
2010-03-23 09:37:43 51°10.388 2°40.854 246.9 13.6 247 11.6
2010-03-23 09:37:48 51°10.381 2°40.826 247.1 13.6 248 11.6
2010-03-23 09:37:53 51°10.374 2°40.799 247.4 13.5 248 11.5
2010-03-23 09:37:58 51°10.367 2°40.771 247.4 13.5 247 11.6
2010-03-23 09:38:02 51°10.361 2°40.749 247.2 13.6 248 11.6
2010-03-23 09:38:09 51°10.351 2°40.71 246.9 13.6 247 11.7
2010-03-23 09:38:13 51°10.345 2°40.688 247.2 13.6 248 11.6
2010-03-23 09:38:18 51°10.338 2°40.661 247.4 13.6 247 11.6
2010-03-23 09:38:23 51°10.331 2°40.633 247.6 13.6 249 11.6
2010-03-23 09:38:28 51°10.324 2°40.605 247.8 13.6 247 11.6
2010-03-23 09:38:33 51°10.317 2°40.577 247.5 13.6 248 11.6
2010-03-23 09:38:38 51°10.31 2°40.55 247.3 13.6 247 11.6
2010-03-23 09:38:43 51°10.303 2°40.522 247.1 13.6 248 11.6
2010-03-23 09:38:48 51°10.295 2°40.494 247.2 13.6 248 11.6
2010-03-23 09:38:53 51°10.288 2°40.467 247.4 13.6 248 11.7
2010-03-23 09:38:58 51°10.281 2°40.439 247.5 13.6 248 11.6
2010-03-23 09:39:03 51°10.274 2°40.411 247.3 13.6 248 11.6
2010-03-23 09:39:08 51°10.267 2°40.383 247.1 13.5 248 11.7
2010-03-23 09:39:13 51°10.26 2°40.356 247.4 13.5 248 11.6
2010-03-23 09:39:18 51°10.253 2°40.328 246.9 13.5 247 11.7
2010-03-23 09:39:23 51°10.246 2°40.301 246.9 13.5 248 11.7
2010-03-23 09:39:29 51°10.237 2°40.267 247.1 13.5 248 11.7
2010-03-23 09:39:33 51°10.232 2°40.245 247.1 13.5 248 11.7
2010-03-23 09:39:38 51°10.225 2°40.217 247.6 13.5 249 11.8
2010-03-23 09:39:44 51°10.216 2°40.184 247.8 13.5 248 11.7
2010-03-23 09:39:49 51°10.21 2°40.156 247.7 13.6 248 11.6
2010-03-23 09:39:53 51°10.204 2°40.134 247.7 13.5 248 11.7
2010-03-23 09:39:58 51°10.197 2°40.106 247.5 13.5 248 11.7
2010-03-23 09:40:03 51°10.19 2°40.078 247.3 13.6 248 11.8
2010-03-23 09:40:08 51°10.183 2°40.05 247.5 13.6 248 11.7
2010-03-23 09:40:13 51°10.176 2°40.023 247.3 13.6 248 11.7
2010-03-23 09:40:18 51°10.169 2°39.995 247.1 13.5 248 11.7
2010-03-23 09:40:24 51°10.161 2°39.961 247.5 13.6 248 11.7
2010-03-23 09:40:29 51°10.153 2°39.934 247.1 13.6 247 11.7
2010-03-23 09:40:34 51°10.146 2°39.906 247.1 13.6 249 11.8
2010-03-23 09:40:38 51°10.141 2°39.884 247.2 13.6 248 11.6
2010-03-23 09:40:44 51°10.132 2°39.85 247.1 13.6 248 11.8
2010-03-23 09:40:48 51°10.127 2°39.828 247.1 13.6 248 11.8
2010-03-23 09:40:53 51°10.12 2°39.8 247.2 13.6 248 11.8
2010-03-23 09:40:58 51°10.113 2°39.772 247.1 13.6 248 11.7
2010-03-23 09:41:03 51°10.106 2°39.744 247.5 13.6 248 11.8
2010-03-23 09:41:08 51°10.099 2°39.717 247.4 13.6 248 11.8
2010-03-23 09:41:14 51°10.09 2°39.683 247.2 13.6 248 11.8
2010-03-23 09:41:18 51°10.085 2°39.661 247.2 13.6 248 11.7
2010-03-23 09:41:23 51°10.078 2°39.633 247.2 13.6 248 11.7
2010-03-23 09:41:28 51°10.07 2°39.605 247 13.6 248 11.9
2010-03-23 09:41:33 51°10.063 2°39.577 247 13.6 249 11.8
2010-03-23 09:41:38 51°10.056 2°39.549 247.1 13.7 248 11.9
2010-03-23 09:41:43 51°10.05 2°39.522 247.2 13.6 248 11.9
2010-03-23 09:41:49 51°10.041 2°39.488 247.3 13.6 248 11.9
2010-03-23 09:41:53 51°10.035 2°39.466 247.4 13.6 248 11.9
2010-03-23 09:41:58 51°10.028 2°39.438 247.1 13.6 248 11.9
2010-03-23 09:42:04 51°10.02 2°39.404 246.9 13.6 248 11.8
2010-03-23 09:42:08 51°10.014 2°39.382 246.9 13.7 248 11.9
2010-03-23 09:42:14 51°10.006 2°39.348 247 13.7 248 11.8
2010-03-23 09:42:18 51°10 2°39.326 247 13.7 249 12
2010-03-23 09:42:23 51°9.993 2°39.298 247.4 13.7 249 12
2010-03-23 09:42:29 51°9.985 2°39.264 247.5 13.7 248 12.1
2010-03-23 09:42:33 51°9.979 2°39.242 247.5 13.7 249 12.1
2010-03-23 09:42:38 51°9.972 2°39.213 247.5 13.7 249 12
2010-03-23 09:42:43 51°9.966 2°39.185 247.6 13.7 249 12.1
2010-03-23 09:42:48 51°9.959 2°39.157 247.6 13.7 249 12.1
2010-03-23 09:42:54 51°9.95 2°39.123 247.5 13.7 248 12.2
2010-03-23 09:42:58 51°9.945 2°39.101 247.3 13.7 248 12.2
2010-03-23 09:43:03 51°9.937 2°39.073 247.1 13.7 248 12.2
2010-03-23 09:43:08 51°9.93 2°39.045 246.8 13.7 248 12.2
2010-03-23 09:43:13 51°9.924 2°39.017 247 13.8 249 12.2
2010-03-23 09:43:18 51°9.916 2°38.989 247 13.7 248 12.2
2010-03-23 09:43:24 51°9.908 2°38.955 247 13.7 248 12.2
2010-03-23 09:43:28 51°9.902 2°38.932 246.9 13.7 248 12.3
2010-03-23 09:43:33 51°9.895 2°38.904 246.9 13.7 249 12.3
2010-03-23 09:43:38 51°9.888 2°38.876 247.1 13.7 249 12.3
2010-03-23 09:43:44 51°9.88 2°38.842 247.3 13.7 249 12.3
2010-03-23 09:43:48 51°9.874 2°38.82 247.6 13.7 249 12.4
2010-03-23 09:43:53 51°9.867 2°38.792 247.2 13.7 248 12.3
2010-03-23 09:43:58 51°9.86 2°38.763 246.9 13.7 248 12.4
2010-03-23 09:44:04 51°9.852 2°38.73 246.8 13.7 248 12.4
2010-03-23 09:44:09 51°9.845 2°38.701 247 13.7 249 12.4
2010-03-23 09:44:13 51°9.839 2°38.679 247.4 13.8 249 12.4
2010-03-23 09:44:18 51°9.832 2°38.651 247.4 13.8 249 12.5
2010-03-23 09:44:23 51°9.825 2°38.622 247.4 13.8 249 12.5
2010-03-23 09:44:28 51°9.819 2°38.594 247.4 13.8 249 12.4
2010-03-23 09:44:33 51°9.812 2°38.566 247.4 13.7 249 12.6
2010-03-23 09:44:38 51°9.805 2°38.537 247.4 13.7 248 12.5
2010-03-23 09:44:44 51°9.796 2°38.504 247.1 13.7 248 12.6
2010-03-23 09:44:49 51°9.789 2°38.475 247 13.7 248 12.7
2010-03-23 09:44:53 51°9.783 2°38.453 246.8 13.8 249 12.7
2010-03-23 09:44:58 51°9.777 2°38.424 247.1 13.8 249 12.7
2010-03-23 09:45:03 51°9.77 2°38.396 247.3 13.8 248 12.8
2010-03-23 09:45:09 51°9.761 2°38.362 247.1 13.8 249 12.8
2010-03-23 09:45:13 51°9.756 2°38.34 247.3 13.8 249 12.8
2010-03-23 09:45:18 51°9.749 2°38.311 247.5 13.8 249 12.9
2010-03-23 09:45:24 51°9.741 2°38.277 247.5 13.8 249 12.8
2010-03-23 09:45:28 51°9.735 2°38.254 247.3 13.8 249 12.8
2010-03-23 09:45:33 51°9.729 2°38.226 247.3 13.8 249 12.9
2010-03-23 09:45:38 51°9.722 2°38.198 247.4 13.8 249 13
2010-03-23 09:45:44 51°9.714 2°38.163 247.5 13.8 249 13
2010-03-23 09:45:48 51°9.708 2°38.141 247.6 13.8 249 13
2010-03-23 09:45:53 51°9.701 2°38.112 247.4 13.8 249 13
2010-03-23 09:45:58 51°9.694 2°38.084 247.3 13.8 249 13
2010-03-23 09:46:03 51°9.687 2°38.056 247.1 13.8 248 13
2010-03-23 09:46:09 51°9.679 2°38.022 247 13.8 249 13.1
2010-03-23 09:46:13 51°9.673 2°37.999 247 13.8 249 13.1
2010-03-23 09:46:18 51°9.666 2°37.971 247.3 13.8 249 13.1
2010-03-23 09:46:24 51°9.658 2°37.937 247.4 13.8 248 13.2
2010-03-23 09:46:28 51°9.652 2°37.914 247.2 13.8 249 13.2
2010-03-23 09:46:33 51°9.645 2°37.886 247 13.8 248 13.3
2010-03-23 09:46:38 51°9.638 2°37.857 247.2 13.8 249 13.3
2010-03-23 09:46:43 51°9.631 2°37.829 247.6 13.8 249 13.3
2010-03-23 09:46:48 51°9.624 2°37.8 247.4 13.8 248 13.3
2010-03-23 09:46:53 51°9.617 2°37.772 247.3 13.9 249 13.4
2010-03-23 09:46:58 51°9.611 2°37.743 247.3 13.8 249 13.4
2010-03-23 09:47:04 51°9.602 2°37.709 247.3 13.8 249 13.5
2010-03-23 09:47:08 51°9.597 2°37.686 247.3 13.8 248 13.4
2010-03-23 09:47:14 51°9.588 2°37.652 247.1 13.9 249 13.4
2010-03-23 09:47:18 51°9.582 2°37.63 246.9 13.8 248 13.5
2010-03-23 09:47:23 51°9.575 2°37.601 246.9 13.9 249 13.5
2010-03-23 09:47:28 51°9.568 2°37.573 247.2 13.8 249 13.5
2010-03-23 09:47:33 51°9.561 2°37.544 247.2 13.9 248 13.6
2010-03-23 09:47:38 51°9.554 2°37.516 247.2 13.9 249 13.7
2010-03-23 09:47:44 51°9.546 2°37.481 247.6 13.9 249 13.6
2010-03-23 09:47:48 51°9.541 2°37.458 247.6 13.9 249 13.6
2010-03-23 09:47:53 51°9.534 2°37.43 247.5 13.9 249 13.8
2010-03-23 09:47:58 51°9.527 2°37.401 247.1 13.9 249 13.8
2010-03-23 09:48:04 51°9.518 2°37.367 247.1 13.9 249 13.9
2010-03-23 09:48:08 51°9.513 2°37.344 247.2 13.9 248 14
2010-03-23 09:48:13 51°9.506 2°37.316 247.4 13.9 249 14.1
2010-03-23 09:48:18 51°9.498 2°37.287 247.3 13.9 248 14.1
2010-03-23 09:48:24 51°9.49 2°37.253 247 13.9 248 14.2
2010-03-23 09:48:29 51°9.483 2°37.225 247 13.9 248 14.2
2010-03-23 09:48:33 51°9.477 2°37.202 246.9 13.9 248 14.2
2010-03-23 09:48:38 51°9.47 2°37.173 246.9 13.9 248 14.4
2010-03-23 09:48:44 51°9.461 2°37.139 247.5 13.9 249 14.3
2010-03-23 09:48:49 51°9.454 2°37.11 247.5 14 248 14.5
2010-03-23 09:48:53 51°9.449 2°37.087 247.8 13.9 250 14.4
2010-03-23 09:48:58 51°9.442 2°37.059 248.1 13.9 249 14.7
2010-03-23 09:49:04 51°9.433 2°37.024 247.6 14 249 14.6
2010-03-23 09:49:09 51°9.426 2°36.996 247.6 14 248 14.6
2010-03-23 09:49:13 51°9.421 2°36.973 247.5 13.9 249 14.7
2010-03-23 09:49:18 51°9.414 2°36.944 247.3 13.9 248 14.8
2010-03-23 09:49:23 51°9.407 2°36.916 247.4 13.9 249 14.7
2010-03-23 09:49:28 51°9.399 2°36.887 247.4 13.9 248 14.8
2010-03-23 09:49:33 51°9.393 2°36.858 247.4 13.9 249 14.9
2010-03-23 09:49:38 51°9.385 2°36.83 247.7 14 249 15
2010-03-23 09:49:43 51°9.378 2°36.801 247.8 13.9 248 15
2010-03-23 09:49:48 51°9.371 2°36.772 247.4 13.9 248 15.1
2010-03-23 09:49:53 51°9.364 2°36.744 247.2 13.9 248 15.2
2010-03-23 09:49:58 51°9.357 2°36.715 247.5 13.9 249 15
2010-03-23 09:50:04 51°9.348 2°36.681 247.5 13.9 248 15.2
2010-03-23 09:50:09 51°9.341 2°36.653 247.2 13.9 248 15.3
2010-03-23 09:50:13 51°9.335 2°36.63 247.1 14 248 15.3
2010-03-23 09:50:18 51°9.328 2°36.601 247.1 14 248 15.3
2010-03-23 09:50:24 51°9.319 2°36.567 247 13.9 248 15.3
2010-03-23 09:50:29 51°9.312 2°36.539 246.9 13.9 248 15.2
2010-03-23 09:50:33 51°9.306 2°36.516 247 13.9 248 15.1
2010-03-23 09:50:38 51°9.299 2°36.487 247.1 13.9 248 15.2
2010-03-23 09:50:43 51°9.292 2°36.459 247.1 13.9 248 15
2010-03-23 09:50:49 51°9.283 2°36.425 247 13.9 248 15.3
2010-03-23 09:50:53 51°9.277 2°36.402 246.7 13.9 248 15.4
2010-03-23 09:50:58 51°9.27 2°36.374 247.1 13.9 249 15.4
2010-03-23 09:51:02 51°9.264 2°36.351 247.2 13.9 248 15.1
2010-03-23 09:51:08 51°9.256 2°36.317 247.2 13.9 249 15.3
2010-03-23 09:51:13 51°9.249 2°36.288 247.4 14 248 15.4
2010-03-23 09:51:18 51°9.242 2°36.259 247.6 13.9 249 15.4
2010-03-23 09:51:23 51°9.234 2°36.231 247.8 13.9 248 15.3
2010-03-23 09:51:28 51°9.227 2°36.202 247.2 14 248 15.4
2010-03-23 09:51:33 51°9.22 2°36.173 247.2 14 248 15.4
2010-03-23 09:51:38 51°9.213 2°36.145 247.2 13.9 248 15.4
2010-03-23 09:51:42 51°9.207 2°36.122 247.4 14 248 15.4
2010-03-23 09:51:49 51°9.197 2°36.082 247.5 14 248 15.5
2010-03-23 09:51:53 51°9.191 2°36.059 247.3 14 248 15.6
2010-03-23 09:51:58 51°9.184 2°36.031 247.2 14 248 15.5
2010-03-23 09:52:03 51°9.177 2°36.002 247.4 14 249 15.5
2010-03-23 09:52:08 51°9.17 2°35.974 247.6 14 248 15.6
2010-03-23 09:52:14 51°9.161 2°35.939 247.5 14 249 15.6
2010-03-23 09:52:18 51°9.156 2°35.916 247.5 14 248 15.6
2010-03-23 09:52:24 51°9.147 2°35.882 247.3 14 248 15.6
2010-03-23 09:52:28 51°9.141 2°35.859 247.2 14 248 15.6
2010-03-23 09:52:33 51°9.134 2°35.83 247.3 14 248 15.6
2010-03-23 09:52:38 51°9.127 2°35.801 247.4 14 249 15.5
2010-03-23 09:52:43 51°9.12 2°35.772 247.5 14 248 15.5
2010-03-23 09:52:48 51°9.112 2°35.744 247.3 14 248 15.6
2010-03-23 09:52:53 51°9.105 2°35.715 247.4 14 248 15.6
2010-03-23 09:52:58 51°9.098 2°35.686 247.5 14 248 15.6
2010-03-23 09:53:03 51°9.091 2°35.657 247.3 14.1 248 15.7
2010-03-23 09:53:09 51°9.082 2°35.623 247.1 14 248 15.7
2010-03-23 09:53:13 51°9.076 2°35.6 247.1 14 247 15.7
2010-03-23 09:53:18 51°9.069 2°35.571 246.9 14 248 15.7
2010-03-23 09:53:23 51°9.062 2°35.542 246.9 14.1 248 15.7
2010-03-23 09:53:29 51°9.053 2°35.508 247.3 14.1 248 15.7
2010-03-23 09:53:34 51°9.046 2°35.479 247.4 14 248 15.8
2010-03-23 09:53:38 51°9.04 2°35.456 247.4 14 248 15.8
2010-03-23 09:53:44 51°9.031 2°35.422 247.1 14.1 248 15.8
2010-03-23 09:53:49 51°9.024 2°35.393 247.3 14.1 248 15.8
2010-03-23 09:53:53 51°9.018 2°35.37 247.4 14 248 15.8
2010-03-23 09:53:58 51°9.011 2°35.341 247.4 14.1 248 15.8
2010-03-23 09:54:02 51°9.005 2°35.318 247.5 14.1 248 15.7
2010-03-23 09:54:08 51°8.996 2°35.283 247.6 14.1 248 15.8
2010-03-23 09:54:13 51°8.989 2°35.254 247.4 14.1 248 15.7
2010-03-23 09:54:18 51°8.982 2°35.226 247.3 14.1 248 15.7
2010-03-23 09:54:23 51°8.974 2°35.197 247.2 14.1 248 15.7
2010-03-23 09:54:28 51°8.967 2°35.168 247 14.1 248 15.7
2010-03-23 09:54:34 51°8.958 2°35.133 247.1 14.1 248 15.8
2010-03-23 09:54:38 51°8.952 2°35.11 247.2 14.1 248 15.8
2010-03-23 09:54:43 51°8.945 2°35.082 247.5 14.1 248 15.9
2010-03-23 09:54:49 51°8.936 2°35.047 247.6 14.1 248 15.8
2010-03-23 09:54:53 51°8.93 2°35.024 246.5 14.1 246 15.9
2010-03-23 09:54:58 51°8.922 2°34.996 245.1 14.1 245 15.8
2010-03-23 09:55:04 51°8.911 2°34.963 244.3 14 245 15.9
2010-03-23 09:55:09 51°8.902 2°34.936 242.8 14 242 15.9
2010-03-23 09:55:13 51°8.895 2°34.914 241.3 14.1 243 15.7
2010-03-23 09:55:18 51°8.886 2°34.887 240.3 14 241 16
2010-03-23 09:55:24 51°8.874 2°34.854 239.6 14 241 15.7
2010-03-23 09:55:29 51°8.864 2°34.827 239 14 240 16
2010-03-23 09:55:33 51°8.856 2°34.806 237.7 14 239 16.1
2010-03-23 09:55:38 51°8.846 2°34.781 236.6 14 237 16.2
2010-03-23 09:55:43 51°8.835 2°34.755 235.4 14 237 16
2010-03-23 09:55:49 51°8.822 2°34.724 235 14 236 16.3
2010-03-23 09:55:53 51°8.813 2°34.703 234.2 14 236 16.3
2010-03-23 09:55:58 51°8.802 2°34.678 233.6 14 235 16.1
2010-03-23 09:56:02 51°8.793 2°34.658 232.7 14 234 16.4
2010-03-23 09:56:08 51°8.779 2°34.628 231.6 14 233 16.2
2010-03-23 09:56:13 51°8.767 2°34.604 230.6 14 233 16.4
2010-03-23 09:56:18 51°8.756 2°34.579 230.2 14 232 16.2
2010-03-23 09:56:24 51°8.741 2°34.55 229.4 14 231 16.3
2010-03-23 09:56:29 51°8.729 2°34.526 228.9 14 232 16.4
2010-03-23 09:56:34 51°8.717 2°34.502 228.7 14 231 16.4
2010-03-23 09:56:38 51°8.707 2°34.483 228.6 14 231 16.4
2010-03-23 09:56:44 51°8.692 2°34.455 228 14 229 16.3
2010-03-23 09:56:48 51°8.682 2°34.436 226.9 14 230 16.4
2010-03-23 09:56:53 51°8.669 2°34.413 226.5 14 229 16.4
2010-03-23 09:56:58 51°8.656 2°34.389 226.4 14 229 16.4
2010-03-23 09:57:03 51°8.643 2°34.366 225.9 14 228 16.4
2010-03-23 09:57:09 51°8.628 2°34.338 225.8 14 229 16.3
2010-03-23 09:57:13 51°8.618 2°34.32 225.8 14 228 16.4
2010-03-23 09:57:18 51°8.605 2°34.296 225.8 14 229 16.4
2010-03-23 09:57:24 51°8.59 2°34.269 226.2 14 229 16.3
2010-03-23 09:57:28 51°8.58 2°34.25 226.2 14 229 16.4
2010-03-23 09:57:33 51°8.567 2°34.227 226.1 14 229 16.3
2010-03-23 09:57:38 51°8.554 2°34.203 226.1 14 229 16.3
2010-03-23 09:57:43 51°8.541 2°34.181 225.9 14 228 16.3
2010-03-23 09:57:48 51°8.528 2°34.158 225.4 14 228 16.3
2010-03-23 09:57:53 51°8.514 2°34.135 224.5 14 227 16.3
2010-03-23 09:57:58 51°8.501 2°34.113 224 14 226 16.3
2010-03-23 09:58:02 51°8.49 2°34.095 223.6 14 226 16.3
2010-03-23 09:58:09 51°8.472 2°34.064 223.5 13.9 226 16.3
2010-03-23 09:58:13 51°8.461 2°34.047 223.1 13.9 226 16.3
2010-03-23 09:58:18 51°8.448 2°34.025 223.1 13.5 226 16.2
2010-03-23 09:58:23 51°8.435 2°34.004 223.2 13 226 16.1
2010-03-23 09:58:28 51°8.422 2°33.984 222.9 12.5 226 16.1
2010-03-23 09:58:33 51°8.41 2°33.965 222.8 12.1 226 16.1
2010-03-23 09:58:38 51°8.399 2°33.947 222.8 11.7 225 16
2010-03-23 09:58:42 51°8.39 2°33.932 222.4 11.5 226 15.9
2010-03-23 09:58:48 51°8.377 2°33.911 222.3 11.2 226 15.9
2010-03-23 09:58:53 51°8.367 2°33.894 222.7 11 226 15.9
2010-03-23 09:58:58 51°8.356 2°33.876 222.8 10.8 226 15.8
2010-03-23 09:59:04 51°8.344 2°33.856 223 10.6 227 15.7
2010-03-23 09:59:09 51°8.334 2°33.84 223.3 10.5 226 15.7
2010-03-23 09:59:13 51°8.327 2°33.826 223.6 10.4 227 15.6
2010-03-23 09:59:18 51°8.317 2°33.81 223.8 10.2 227 15.5
2010-03-23 09:59:24 51°8.306 2°33.79 224.1 10.2 227 15.4
2010-03-23 09:59:29 51°8.296 2°33.774 224.2 10.1 227 15.3
2010-03-23 09:59:33 51°8.289 2°33.761 223.9 10 227 15.2
2010-03-23 09:59:38 51°8.279 2°33.746 223.9 9.9 227 15.1
2010-03-23 09:59:43 51°8.27 2°33.73 223.8 9.9 227 15
2010-03-23 09:59:49 51°8.259 2°33.711 223.8 9.8 227 15
2010-03-23 09:59:53 51°8.251 2°33.698 223.6 9.8 226 14.9
2010-03-23 09:59:58 51°8.242 2°33.682 223.8 9.8 227 14.7
2010-03-23 10:00:02 51°8.234 2°33.67 223.8 9.7 227 14.5
2010-03-23 10:00:08 51°8.223 2°33.651 223.8 9.7 226 14.5
2010-03-23 10:00:13 51°8.214 2°33.636 223.8 9.7 226 14.4
2010-03-23 10:00:18 51°8.205 2°33.62 223.8 9.7 226 14.2
2010-03-23 10:00:23 51°8.195 2°33.605 223.8 9.6 226 14
2010-03-23 10:00:28 51°8.186 2°33.59 223.6 9.6 226 13.8
2010-03-23 10:00:33 51°8.177 2°33.575 223.6 9.6 226 13.6
2010-03-23 10:00:38 51°8.168 2°33.559 223.6 9.6 226 13.4
2010-03-23 10:00:42 51°8.16 2°33.547 223.6 9.6 226 13.3
2010-03-23 10:00:48 51°8.149 2°33.528 223.8 9.6 227 13.1
2010-03-23 10:00:53 51°8.14 2°33.513 224 9.5 227 12.9
2010-03-23 10:00:58 51°8.131 2°33.498 224.3 9.5 227 12.8
2010-03-23 10:01:03 51°8.122 2°33.483 224.4 9.5 227 12.6
2010-03-23 10:01:08 51°8.113 2°33.467 224.5 9.5 226 12.4
2010-03-23 10:01:14 51°8.102 2°33.449 224.5 9.5 227 12.4
2010-03-23 10:01:18 51°8.095 2°33.437 224.5 9.5 226 12.2
2010-03-23 10:01:24 51°8.084 2°33.418 224.5 9.5 227 12
2010-03-23 10:01:28 51°8.077 2°33.406 224.6 9.4 226 12.1
2010-03-23 10:01:33 51°8.069 2°33.391 224.7 9.1 227 11.9
2010-03-23 10:01:38 51°8.06 2°33.378 224.6 8.7 226 12
2010-03-23 10:01:43 51°8.052 2°33.364 224.4 8.3 227 11.7
2010-03-23 10:01:48 51°8.045 2°33.352 223.6 8 225 11.5
2010-03-23 10:01:53 51°8.037 2°33.339 222.8 7.7 225 11.6
2010-03-23 10:01:58 51°8.03 2°33.329 221.7 7.3 224 11.5
2010-03-23 10:02:04 51°8.021 2°33.316 220.5 7 224 11.2